sensor_id;sensor_type;location;lat;lon;timestamp;pressure;altitude;pressure_sealevel;temperature;humidity
64298;BME280;50639;53.270;7.956;2024-01-27T00:01:17;103022.22;;;3.24;94.65
64298;BME280;50639;53.270;7.956;2024-01-27T00:03:42;103031.59;;;3.24;94.92
64298;BME280;50639;53.270;7.956;2024-01-27T00:06:08;103034.16;;;3.25;94.39
64298;BME280;50639;53.270;7.956;2024-01-27T00:08:33;103030.75;;;3.23;94.50
64298;BME280;50639;53.270;7.956;2024-01-27T00:10:58;103038.38;;;3.20;94.71
64298;BME280;50639;53.270;7.956;2024-01-27T00:13:24;103035.84;;;3.22;95.16
64298;BME280;50639;53.270;7.956;2024-01-27T00:15:50;103036.69;;;3.21;94.59
64298;BME280;50639;53.270;7.956;2024-01-27T00:18:17;103031.56;;;3.19;94.86
64298;BME280;50639;53.270;7.956;2024-01-27T00:20:42;103031.56;;;3.16;95.25
64298;BME280;50639;53.270;7.956;2024-01-27T00:23:08;103043.53;;;3.22;95.38
64298;BME280;50639;53.270;7.956;2024-01-27T00:25:33;103044.38;;;3.21;95.37
64298;BME280;50639;53.270;7.956;2024-01-27T00:27:59;103051.19;;;3.19;94.75
64298;BME280;50639;53.270;7.956;2024-01-27T00:30:24;103048.59;;;3.17;94.77
64298;BME280;50639;53.270;7.956;2024-01-27T00:32:50;103044.34;;;3.18;95.35
64298;BME280;50639;53.270;7.956;2024-01-27T00:35:16;103033.22;;;3.11;94.63
64298;BME280;50639;53.270;7.956;2024-01-27T00:37:41;103040.06;;;3.12;95.22
64298;BME280;50639;53.270;7.956;2024-01-27T00:40:08;103045.16;;;3.12;95.12
64298;BME280;50639;53.270;7.956;2024-01-27T00:42:34;103045.19;;;3.14;95.51
64298;BME280;50639;53.270;7.956;2024-01-27T00:45:00;103057.13;;;3.13;95.29
64298;BME280;50639;53.270;7.956;2024-01-27T00:47:25;103040.09;;;3.18;95.17
64298;BME280;50639;53.270;7.956;2024-01-27T00:49:50;103047.75;;;3.17;95.06
64298;BME280;50639;53.270;7.956;2024-01-27T00:52:16;103052.88;;;3.14;95.41
64298;BME280;50639;53.270;7.956;2024-01-27T00:54:42;103049.47;;;3.15;95.20
64298;BME280;50639;53.270;7.956;2024-01-27T00:57:07;103048.56;;;3.11;94.90
64298;BME280;50639;53.270;7.956;2024-01-27T00:59:33;103049.47;;;3.16;95.61
64298;BME280;50639;53.270;7.956;2024-01-27T01:01:59;103060.56;;;3.15;95.35
64298;BME280;50639;53.270;7.956;2024-01-27T01:04:24;103066.47;;;3.10;95.28
64298;BME280;50639;53.270;7.956;2024-01-27T01:06:50;103063.06;;;3.08;95.75
64298;BME280;50639;53.270;7.956;2024-01-27T01:09:16;103075.88;;;3.09;95.53
64298;BME280;50639;53.270;7.956;2024-01-27T01:11:42;103069.06;;;3.11;95.76
64298;BME280;50639;53.270;7.956;2024-01-27T01:14:07;103067.38;;;3.13;95.56
64298;BME280;50639;53.270;7.956;2024-01-27T01:16:33;103061.38;;;3.11;95.41
64298;BME280;50639;53.270;7.956;2024-01-27T01:18:58;103062.25;;;3.12;95.85
64298;BME280;50639;53.270;7.956;2024-01-27T01:21:24;103061.38;;;3.13;95.14
64298;BME280;50639;53.270;7.956;2024-01-27T01:23:50;103063.09;;;3.14;95.61
64298;BME280;50639;53.270;7.956;2024-01-27T01:26:15;103057.09;;;3.10;95.70
64298;BME280;50639;53.270;7.956;2024-01-27T01:28:41;103066.47;;;3.10;95.53
64298;BME280;50639;53.270;7.956;2024-01-27T01:31:06;103065.63;;;3.09;95.66
64298;BME280;50639;53.270;7.956;2024-01-27T01:33:33;103075.88;;;3.06;95.50
64298;BME280;50639;53.270;7.956;2024-01-27T01:35:58;103067.34;;;3.10;95.11
64298;BME280;50639;53.270;7.956;2024-01-27T01:38:24;103058.81;;;3.11;95.74
64298;BME280;50639;53.270;7.956;2024-01-27T01:40:49;103063.97;;;3.14;95.25
64298;BME280;50639;53.270;7.956;2024-01-27T01:43:15;103069.94;;;3.13;95.58
64298;BME280;50639;53.270;7.956;2024-01-27T01:45:40;103075.91;;;3.12;95.20
64298;BME280;50639;53.270;7.956;2024-01-27T01:48:07;103078.50;;;3.15;95.90
64298;BME280;50639;53.270;7.956;2024-01-27T01:50:32;103075.06;;;3.15;95.83
64298;BME280;50639;53.270;7.956;2024-01-27T01:52:58;103075.91;;;3.17;94.86
64298;BME280;50639;53.270;7.956;2024-01-27T01:55:24;103082.75;;;3.16;95.84
64298;BME280;50639;53.270;7.956;2024-01-27T01:57:49;103092.16;;;3.19;95.75
64298;BME280;50639;53.270;7.956;2024-01-27T02:00:15;103086.16;;;3.15;95.35
64298;BME280;50639;53.270;7.956;2024-01-27T02:02:46;103084.44;;;3.17;95.62
64298;BME280;50639;53.270;7.956;2024-01-27T02:05:14;103086.16;;;3.18;95.52
64298;BME280;50639;53.270;7.956;2024-01-27T02:07:40;103080.19;;;3.18;95.26
64298;BME280;50639;53.270;7.956;2024-01-27T02:10:13;103087.06;;;3.22;95.20
64298;BME280;50639;53.270;7.956;2024-01-27T02:12:41;103093.88;;;3.20;95.22
64298;BME280;50639;53.270;7.956;2024-01-27T02:15:10;103097.25;;;3.17;94.65
64298;BME280;50639;53.270;7.956;2024-01-27T02:17:36;103104.06;;;3.17;94.92
64298;BME280;50639;53.270;7.956;2024-01-27T02:20:02;103093.84;;;3.18;95.51
64298;BME280;50639;53.270;7.956;2024-01-27T02:22:28;103100.72;;;3.22;95.34
64298;BME280;50639;53.270;7.956;2024-01-27T02:24:53;103098.97;;;3.18;94.83
64298;BME280;50639;53.270;7.956;2024-01-27T02:27:19;103101.53;;;3.15;95.32
64298;BME280;50639;53.270;7.956;2024-01-27T02:29:44;103098.94;;;3.17;95.13
64298;BME280;50639;53.270;7.956;2024-01-27T02:32:09;103106.66;;;3.18;94.75
64298;BME280;50639;53.270;7.956;2024-01-27T02:34:35;103104.09;;;3.18;95.04
64298;BME280;50639;53.270;7.956;2024-01-27T02:37:00;103116.06;;;3.19;95.48
64298;BME280;50639;53.270;7.956;2024-01-27T02:39:25;103117.72;;;3.17;95.02
64298;BME280;50639;53.270;7.956;2024-01-27T02:41:51;103115.19;;;3.17;95.18
64298;BME280;50639;53.270;7.956;2024-01-27T02:44:16;103110.91;;;3.18;95.05
64298;BME280;50639;53.270;7.956;2024-01-27T02:46:42;103115.16;;;3.13;94.60
64298;BME280;50639;53.270;7.956;2024-01-27T02:49:09;103101.53;;;3.15;94.65
64298;BME280;50639;53.270;7.956;2024-01-27T02:51:34;103111.72;;;3.11;95.48
64298;BME280;50639;53.270;7.956;2024-01-27T02:54:00;103110.84;;;3.06;95.52
64298;BME280;50639;53.270;7.956;2024-01-27T02:56:25;103121.09;;;3.06;95.36
64298;BME280;50639;53.270;7.956;2024-01-27T02:58:51;103114.22;;;3.03;95.63
64298;BME280;50639;53.270;7.956;2024-01-27T03:01:16;103118.50;;;3.02;95.63
64298;BME280;50639;53.270;7.956;2024-01-27T03:03:41;103118.44;;;2.96;95.67
64298;BME280;50639;53.270;7.956;2024-01-27T03:06:07;103123.59;;;3.01;95.34
64298;BME280;50639;53.270;7.956;2024-01-27T03:08:32;103120.19;;;3.02;95.36
64298;BME280;50639;53.270;7.956;2024-01-27T03:10:58;103116.75;;;3.00;95.61
64298;BME280;50639;53.270;7.956;2024-01-27T03:13:23;103111.66;;;2.98;95.64
64298;BME280;50639;53.270;7.956;2024-01-27T03:15:48;103108.19;;;2.95;95.12
64298;BME280;50639;53.270;7.956;2024-01-27T03:18:15;103104.81;;;2.97;95.93
64298;BME280;50639;53.270;7.956;2024-01-27T03:20:40;103124.44;;;2.98;95.58
64298;BME280;50639;53.270;7.956;2024-01-27T03:23:06;103109.94;;;2.97;95.45
64298;BME280;50639;53.270;7.956;2024-01-27T03:25:31;103121.00;;;2.96;95.89
64298;BME280;50639;53.270;7.956;2024-01-27T03:27:56;103121.00;;;2.99;95.74
64298;BME280;50639;53.270;7.956;2024-01-27T03:30:22;103118.50;;;3.02;95.41
64298;BME280;50639;53.270;7.956;2024-01-27T03:32:47;103120.19;;;3.02;95.28
64298;BME280;50639;53.270;7.956;2024-01-27T03:35:13;103109.09;;;3.01;95.24
64298;BME280;50639;53.270;7.956;2024-01-27T03:37:39;103106.50;;;3.00;95.09
64298;BME280;50639;53.270;7.956;2024-01-27T03:40:04;103106.50;;;3.00;94.69
64298;BME280;50639;53.270;7.956;2024-01-27T03:42:30;103111.56;;;2.92;95.17
64298;BME280;50639;53.270;7.956;2024-01-27T03:44:55;103116.69;;;2.88;95.34
64298;BME280;50639;53.270;7.956;2024-01-27T03:47:21;103121.78;;;2.88;95.47
64298;BME280;50639;53.270;7.956;2024-01-27T03:49:46;103126.06;;;2.89;95.69
64298;BME280;50639;53.270;7.956;2024-01-27T03:52:11;103120.06;;;2.85;95.35
64298;BME280;50639;53.270;7.956;2024-01-27T03:54:37;103131.94;;;2.82;95.39
64298;BME280;50639;53.270;7.956;2024-01-27T03:57:03;103134.50;;;2.79;96.05
64298;BME280;50639;53.270;7.956;2024-01-27T03:59:28;103141.34;;;2.80;95.67
64298;BME280;50639;53.270;7.956;2024-01-27T04:01:54;103147.25;;;2.76;95.16
64298;BME280;50639;53.270;7.956;2024-01-27T04:04:19;103148.97;;;2.75;95.69
64298;BME280;50639;53.270;7.956;2024-01-27T04:06:44;103137.00;;;2.74;96.01
64298;BME280;50639;53.270;7.956;2024-01-27T04:09:10;103133.59;;;2.74;95.77
64298;BME280;50639;53.270;7.956;2024-01-27T04:11:36;103140.41;;;2.72;96.28
64298;BME280;50639;53.270;7.956;2024-01-27T04:14:02;103137.81;;;2.69;96.28
64298;BME280;50639;53.270;7.956;2024-01-27T04:16:28;103130.13;;;2.69;96.07
64298;BME280;50639;53.270;7.956;2024-01-27T04:18:53;103135.25;;;2.69;95.87
64298;BME280;50639;53.270;7.956;2024-01-27T04:21:19;103132.69;;;2.67;96.21
64298;BME280;50639;53.270;7.956;2024-01-27T04:23:44;103132.63;;;2.61;95.64
64298;BME280;50639;53.270;7.956;2024-01-27T04:26:10;103125.78;;;2.58;95.93
64298;BME280;50639;53.270;7.956;2024-01-27T04:28:36;103133.44;;;2.57;96.18
64298;BME280;50639;53.270;7.956;2024-01-27T04:31:01;103138.59;;;2.61;96.34
64298;BME280;50639;53.270;7.956;2024-01-27T04:33:27;103137.72;;;2.59;96.33
64298;BME280;50639;53.270;7.956;2024-01-27T04:35:53;103137.75;;;2.61;96.31
64298;BME280;50639;53.270;7.956;2024-01-27T04:38:18;103141.16;;;2.61;96.17
64298;BME280;50639;53.270;7.956;2024-01-27T04:40:43;103131.78;;;2.62;95.74
64298;BME280;50639;53.270;7.956;2024-01-27T04:43:09;103131.75;;;2.59;95.73
64298;BME280;50639;53.270;7.956;2024-01-27T04:45:34;103131.72;;;2.56;95.96
64298;BME280;50639;53.270;7.956;2024-01-27T04:48:00;103128.28;;;2.55;95.95
64298;BME280;50639;53.270;7.956;2024-01-27T04:50:26;103135.97;;;2.54;96.04
64298;BME280;50639;53.270;7.956;2024-01-27T04:52:52;103138.50;;;2.52;95.90
64298;BME280;50639;53.270;7.956;2024-01-27T04:55:18;103135.13;;;2.53;96.19
64298;BME280;50639;53.270;7.956;2024-01-27T04:57:43;103141.94;;;2.53;96.17
64298;BME280;50639;53.270;7.956;2024-01-27T05:00:09;103134.25;;;2.53;96.25
64298;BME280;50639;53.270;7.956;2024-01-27T05:02:41;103135.06;;;2.50;96.50
64298;BME280;50639;53.270;7.956;2024-01-27T05:05:08;103135.06;;;2.50;96.14
64298;BME280;50639;53.270;7.956;2024-01-27T05:07:34;103141.88;;;2.48;96.61
64298;BME280;50639;53.270;7.956;2024-01-27T05:10:00;103138.47;;;2.49;96.67
64298;BME280;50639;53.270;7.956;2024-01-27T05:12:25;103146.09;;;2.43;96.51
64298;BME280;50639;53.270;7.956;2024-01-27T05:14:51;103146.97;;;2.45;96.59
64298;BME280;50639;53.270;7.956;2024-01-27T05:17:16;103144.38;;;2.44;96.45
64298;BME280;50639;53.270;7.956;2024-01-27T05:19:42;103156.28;;;2.40;96.57
64298;BME280;50639;53.270;7.956;2024-01-27T05:22:07;103152.84;;;2.38;96.43
64298;BME280;50639;53.270;7.956;2024-01-27T05:24:33;103146.03;;;2.39;96.37
64298;BME280;50639;53.270;7.956;2024-01-27T05:26:59;103157.13;;;2.41;96.59
64298;BME280;50639;53.270;7.956;2024-01-27T05:29:27;103149.44;;;2.36;96.65
64298;BME280;50639;53.270;7.956;2024-01-27T05:31:52;103151.97;;;2.36;96.93
64298;BME280;50639;53.270;7.956;2024-01-27T05:34:18;103149.44;;;2.39;97.00
64298;BME280;50639;53.270;7.956;2024-01-27T05:36:43;103152.06;;;2.47;96.50
64298;BME280;50639;53.270;7.956;2024-01-27T05:39:09;103154.63;;;2.44;96.95
64298;BME280;50639;53.270;7.956;2024-01-27T05:41:34;103152.84;;;2.38;96.53
64298;BME280;50639;53.270;7.956;2024-01-27T05:44:00;103148.59;;;2.37;96.31
64298;BME280;50639;53.270;7.956;2024-01-27T05:46:25;103153.66;;;2.34;96.56
64298;BME280;50639;53.270;7.956;2024-01-27T05:48:51;103153.63;;;2.33;96.93
64298;BME280;50639;53.270;7.956;2024-01-27T05:51:19;103158.78;;;2.34;96.49
64298;BME280;50639;53.270;7.956;2024-01-27T05:53:45;103152.81;;;2.35;97.01
64298;BME280;50639;53.270;7.956;2024-01-27T05:56:11;103158.78;;;2.36;96.97
64298;BME280;50639;53.270;7.956;2024-01-27T05:58:37;103156.22;;;2.34;96.87
64298;BME280;50639;53.270;7.956;2024-01-27T06:01:03;103156.19;;;2.33;96.96
64298;BME280;50639;53.270;7.956;2024-01-27T06:03:29;103149.34;;;2.30;96.48
64298;BME280;50639;53.270;7.956;2024-01-27T06:05:57;103160.41;;;2.29;96.67
64298;BME280;50639;53.270;7.956;2024-01-27T06:08:22;103166.34;;;2.25;96.90
64298;BME280;50639;53.270;7.956;2024-01-27T06:10:47;103166.28;;;2.22;97.16
64298;BME280;50639;53.270;7.956;2024-01-27T06:13:13;103170.53;;;2.18;96.95
64298;BME280;50639;53.270;7.956;2024-01-27T06:15:38;103179.00;;;2.16;96.96
64298;BME280;50639;53.270;7.956;2024-01-27T06:18:04;103179.03;;;2.17;96.92
64298;BME280;50639;53.270;7.956;2024-01-27T06:20:30;103182.41;;;2.15;97.12
64298;BME280;50639;53.270;7.956;2024-01-27T06:22:55;103195.13;;;2.10;96.90
64298;BME280;50639;53.270;7.956;2024-01-27T06:25:21;103196.81;;;2.11;96.83
64298;BME280;50639;53.270;7.956;2024-01-27T06:27:47;103193.38;;;2.08;96.92
64298;BME280;50639;53.270;7.956;2024-01-27T06:30:13;103198.44;;;2.02;97.13
64298;BME280;50639;53.270;7.956;2024-01-27T06:32:39;103197.56;;;2.01;97.43
64298;BME280;50639;53.270;7.956;2024-01-27T06:35:04;103188.22;;;2.02;97.57
64298;BME280;50639;53.270;7.956;2024-01-27T06:37:30;103194.22;;;2.07;97.11
64298;BME280;50639;53.270;7.956;2024-01-27T06:39:56;103186.59;;;2.08;97.55
64298;BME280;50639;53.270;7.956;2024-01-27T06:42:21;103181.47;;;2.08;97.31
64298;BME280;50639;53.270;7.956;2024-01-27T06:44:46;103187.47;;;2.10;97.72
64298;BME280;50639;53.270;7.956;2024-01-27T06:47:12;103186.59;;;2.10;97.09
64298;BME280;50639;53.270;7.956;2024-01-27T06:49:37;103192.53;;;2.07;97.06
64298;BME280;50639;53.270;7.956;2024-01-27T06:52:03;103190.75;;;2.03;97.55
64298;BME280;50639;53.270;7.956;2024-01-27T06:54:28;103201.88;;;2.05;97.73
64298;BME280;50639;53.270;7.956;2024-01-27T06:56:54;103206.16;;;2.08;97.20
64298;BME280;50639;53.270;7.956;2024-01-27T06:59:19;103216.38;;;2.08;97.68
64298;BME280;50639;53.270;7.956;2024-01-27T07:01:48;103217.19;;;2.05;97.32
64298;BME280;50639;53.270;7.956;2024-01-27T07:04:14;103226.63;;;2.08;97.73
64298;BME280;50639;53.270;7.956;2024-01-27T07:06:40;103227.47;;;2.08;97.83
64298;BME280;50639;53.270;7.956;2024-01-27T07:09:05;103224.94;;;2.10;97.45
64298;BME280;50639;53.270;7.956;2024-01-27T07:11:32;103222.31;;;2.05;97.24
64298;BME280;50639;53.270;7.956;2024-01-27T07:13:59;103222.31;;;2.05;97.46
64298;BME280;50639;53.270;7.956;2024-01-27T07:16:24;103225.75;;;2.07;97.86
64298;BME280;50639;53.270;7.956;2024-01-27T07:18:50;103232.53;;;2.02;97.36
64298;BME280;50639;53.270;7.956;2024-01-27T07:21:16;103230.78;;;2.01;97.78
64298;BME280;50639;53.270;7.956;2024-01-27T07:23:43;103231.66;;;2.02;97.90
64298;BME280;50639;53.270;7.956;2024-01-27T07:26:11;103231.63;;;2.00;97.65
64298;BME280;50639;53.270;7.956;2024-01-27T07:28:38;103225.63;;;1.98;97.96
64298;BME280;50639;53.270;7.956;2024-01-27T07:31:04;103229.88;;;1.98;98.09
64298;BME280;50639;53.270;7.956;2024-01-27T07:33:30;103223.09;;;2.00;97.50
64298;BME280;50639;53.270;7.956;2024-01-27T07:35:56;103227.41;;;2.02;97.65
64298;BME280;50639;53.270;7.956;2024-01-27T07:38:22;103238.47;;;2.04;98.04
64298;BME280;50639;53.270;7.956;2024-01-27T07:40:47;103242.00;;;2.11;97.89
64298;BME280;50639;53.270;7.956;2024-01-27T07:43:13;103234.38;;;2.15;97.64
64298;BME280;50639;53.270;7.956;2024-01-27T07:45:38;103239.47;;;2.14;97.74
64298;BME280;50639;53.270;7.956;2024-01-27T07:48:04;103242.06;;;2.17;97.47
64298;BME280;50639;53.270;7.956;2024-01-27T07:50:29;103253.19;;;2.19;98.09
64298;BME280;50639;53.270;7.956;2024-01-27T07:52:55;103251.47;;;2.21;97.44
64298;BME280;50639;53.270;7.956;2024-01-27T07:55:20;103261.78;;;2.25;97.62
64298;BME280;50639;53.270;7.956;2024-01-27T07:57:46;103267.78;;;2.29;97.16
64298;BME280;50639;53.270;7.956;2024-01-27T08:00:12;103256.75;;;2.32;97.16
64298;BME280;50639;53.270;7.956;2024-01-27T08:02:37;103261.06;;;2.36;97.61
64298;BME280;50639;53.270;7.956;2024-01-27T08:05:03;103273.91;;;2.40;97.68
64298;BME280;50639;53.270;7.956;2024-01-27T08:07:29;103279.13;;;2.48;97.45
64298;BME280;50639;53.270;7.956;2024-01-27T08:09:54;103274.03;;;2.49;97.40
64298;BME280;50639;53.270;7.956;2024-01-27T08:12:22;103268.97;;;2.54;96.79
64298;BME280;50639;53.270;7.956;2024-01-27T08:14:48;103274.13;;;2.58;96.95
64298;BME280;50639;53.270;7.956;2024-01-27T08:17:13;103278.47;;;2.62;97.19
64298;BME280;50639;53.270;7.956;2024-01-27T08:19:39;103278.47;;;2.65;97.17
64298;BME280;50639;53.270;7.956;2024-01-27T08:22:04;103281.06;;;2.67;96.66
64298;BME280;50639;53.270;7.956;2024-01-27T08:24:30;103275.19;;;2.73;96.39
64298;BME280;50639;53.270;7.956;2024-01-27T08:26:55;103286.28;;;2.76;96.60
64298;BME280;50639;53.270;7.956;2024-01-27T08:29:20;103282.94;;;2.82;96.65
64298;BME280;50639;53.270;7.956;2024-01-27T08:31:46;103277.03;;;2.86;96.83
64298;BME280;50639;53.270;7.956;2024-01-27T08:34:11;103289.88;;;2.92;96.13
64298;BME280;50639;53.270;7.956;2024-01-27T08:36:39;103281.44;;;2.99;95.72
64298;BME280;50639;53.270;7.956;2024-01-27T08:39:05;103289.19;;;3.05;95.87
64298;BME280;50639;53.270;7.956;2024-01-27T08:41:33;103284.94;;;3.09;95.73
64298;BME280;50639;53.270;7.956;2024-01-27T08:43:58;103290.97;;;3.14;95.64
64298;BME280;50639;53.270;7.956;2024-01-27T08:46:23;103290.16;;;3.19;95.66
64298;BME280;50639;53.270;7.956;2024-01-27T08:48:49;103289.38;;;3.25;95.23
64298;BME280;50639;53.270;7.956;2024-01-27T08:51:14;103281.72;;;3.25;95.28
64298;BME280;50639;53.270;7.956;2024-01-27T08:53:42;103290.28;;;3.31;95.00
64298;BME280;50639;53.270;7.956;2024-01-27T08:56:14;103292.84;;;3.31;94.45
64298;BME280;50639;53.270;7.956;2024-01-27T08:58:39;103303.09;;;3.34;94.86
64298;BME280;50639;53.270;7.956;2024-01-27T09:01:04;103305.75;;;3.40;94.58
64298;BME280;50639;53.270;7.956;2024-01-27T09:03:33;103308.34;;;3.45;94.55
64298;BME280;50639;53.270;7.956;2024-01-27T09:05:58;103304.94;;;3.48;94.51
64298;BME280;50639;53.270;7.956;2024-01-27T09:08:24;103304.19;;;3.56;94.57
64298;BME280;50639;53.270;7.956;2024-01-27T09:10:49;103302.50;;;3.58;94.20
64298;BME280;50639;53.270;7.956;2024-01-27T09:13:15;103313.59;;;3.62;93.55
64298;BME280;50639;53.270;7.956;2024-01-27T09:15:41;103311.91;;;3.62;93.88
64298;BME280;50639;53.270;7.956;2024-01-27T09:18:06;103313.66;;;3.66;93.75
64298;BME280;50639;53.270;7.956;2024-01-27T09:20:32;103329.91;;;3.67;93.71
64298;BME280;50639;53.270;7.956;2024-01-27T09:22:57;103334.22;;;3.74;93.44
64298;BME280;50639;53.270;7.956;2024-01-27T09:25:23;103334.22;;;3.74;93.05
64298;BME280;50639;53.270;7.956;2024-01-27T09:27:49;103329.16;;;3.82;93.05
64298;BME280;50639;53.270;7.956;2024-01-27T09:30:15;103329.19;;;3.85;92.74
64298;BME280;50639;53.270;7.956;2024-01-27T09:32:40;103324.09;;;3.89;93.23
64298;BME280;50639;53.270;7.956;2024-01-27T09:35:06;103320.69;;;3.90;92.96
64298;BME280;50639;53.270;7.956;2024-01-27T09:37:31;103310.47;;;3.98;93.28
64298;BME280;50639;53.270;7.956;2024-01-27T09:39:58;103309.66;;;4.00;93.46
64298;BME280;50639;53.270;7.956;2024-01-27T09:42:26;103312.25;;;4.06;93.46
64298;BME280;50639;53.270;7.956;2024-01-27T09:44:53;103313.13;;;4.10;92.57
64298;BME280;50639;53.270;7.956;2024-01-27T09:47:21;103317.44;;;4.12;92.14
64298;BME280;50639;53.270;7.956;2024-01-27T09:49:47;103315.78;;;4.21;92.53
64298;BME280;50639;53.270;7.956;2024-01-27T09:52:13;103319.22;;;4.27;92.54
64298;BME280;50639;53.270;7.956;2024-01-27T09:54:40;103311.53;;;4.29;92.22
64298;BME280;50639;53.270;7.956;2024-01-27T09:57:05;103315.00;;;4.35;92.21
64298;BME280;50639;53.270;7.956;2024-01-27T09:59:33;103327.81;;;4.40;92.66
64298;BME280;50639;53.270;7.956;2024-01-27T10:01:59;103327.88;;;4.46;91.90
64298;BME280;50639;53.270;7.956;2024-01-27T10:04:26;103327.06;;;4.48;91.94
64298;BME280;50639;53.270;7.956;2024-01-27T10:06:52;103326.19;;;4.48;91.45
64298;BME280;50639;53.270;7.956;2024-01-27T10:09:18;103333.06;;;4.55;91.80
64298;BME280;50639;53.270;7.956;2024-01-27T10:11:47;103337.34;;;4.58;91.30
64298;BME280;50639;53.270;7.956;2024-01-27T10:14:13;103339.09;;;4.62;90.88
64298;BME280;50639;53.270;7.956;2024-01-27T10:16:45;103342.50;;;4.67;90.20
64298;BME280;50639;53.270;7.956;2024-01-27T10:19:15;103339.16;;;4.74;90.86
64298;BME280;50639;53.270;7.956;2024-01-27T10:21:47;103340.00;;;4.77;90.51
64298;BME280;50639;53.270;7.956;2024-01-27T10:24:14;103345.16;;;4.86;90.15
64298;BME280;50639;53.270;7.956;2024-01-27T10:26:39;103340.91;;;4.87;90.16
64298;BME280;50639;53.270;7.956;2024-01-27T10:29:05;103342.66;;;4.97;90.16
64298;BME280;50639;53.270;7.956;2024-01-27T10:31:33;103347.78;;;4.97;90.44
64298;BME280;50639;53.270;7.956;2024-01-27T10:33:59;103346.94;;;5.04;90.31
64298;BME280;50639;53.270;7.956;2024-01-27T10:36:26;103337.53;;;5.03;89.47
64298;BME280;50639;53.270;7.956;2024-01-27T10:38:52;103333.28;;;5.13;89.85
64298;BME280;50639;53.270;7.956;2024-01-27T10:41:24;103337.59;;;5.18;90.07
64298;BME280;50639;53.270;7.956;2024-01-27T10:43:51;103325.63;;;5.26;89.66
64298;BME280;50639;53.270;7.956;2024-01-27T10:46:20;103334.19;;;5.35;89.52
64298;BME280;50639;53.270;7.956;2024-01-27T10:48:50;103335.91;;;5.36;89.20
64298;BME280;50639;53.270;7.956;2024-01-27T10:51:28;103323.91;;;5.38;89.25
64298;BME280;50639;53.270;7.956;2024-01-27T10:54:00;103329.91;;;5.41;88.24
64298;BME280;50639;53.270;7.956;2024-01-27T10:56:27;103321.38;;;5.45;88.75
64298;BME280;50639;53.270;7.956;2024-01-27T10:58:52;103325.63;;;5.49;88.57
64298;BME280;50639;53.270;7.956;2024-01-27T11:01:19;103333.38;;;5.60;87.92
64298;BME280;50639;53.270;7.956;2024-01-27T11:03:48;103351.38;;;5.61;88.08
64298;BME280;50639;53.270;7.956;2024-01-27T11:06:14;103365.06;;;5.68;88.12
64298;BME280;50639;53.270;7.956;2024-01-27T11:08:40;103359.06;;;5.72;87.48
64298;BME280;50639;53.270;7.956;2024-01-27T11:11:05;103349.66;;;5.76;87.64
64298;BME280;50639;53.270;7.956;2024-01-27T11:13:32;103359.94;;;5.82;87.65
64298;BME280;50639;53.270;7.956;2024-01-27T11:15:58;103358.25;;;5.93;87.59
64298;BME280;50639;53.270;7.956;2024-01-27T11:18:24;103364.25;;;6.01;87.18
64298;BME280;50639;53.270;7.956;2024-01-27T11:20:57;103361.69;;;6.04;86.64
64298;BME280;50639;53.270;7.956;2024-01-27T11:23:32;103380.53;;;6.03;87.00
64298;BME280;50639;53.270;7.956;2024-01-27T11:26:08;103367.69;;;6.12;86.74
64298;BME280;50639;53.270;7.956;2024-01-27T11:28:35;103377.09;;;6.21;87.15
64298;BME280;50639;53.270;7.956;2024-01-27T11:31:08;103365.97;;;6.23;86.56
64298;BME280;50639;53.270;7.956;2024-01-27T11:33:41;103357.34;;;6.36;86.73
64298;BME280;50639;53.270;7.956;2024-01-27T11:36:07;103359.91;;;6.47;86.94
64298;BME280;50639;53.270;7.956;2024-01-27T11:38:33;103365.03;;;6.52;86.25
64298;BME280;50639;53.270;7.956;2024-01-27T11:41:03;103364.16;;;6.54;86.58
64298;BME280;50639;53.270;7.956;2024-01-27T11:43:29;103371.00;;;6.67;85.82
64298;BME280;50639;53.270;7.956;2024-01-27T11:45:58;103361.53;;;6.72;86.08
64298;BME280;50639;53.270;7.956;2024-01-27T11:48:24;103370.09;;;6.80;85.70
64298;BME280;50639;53.270;7.956;2024-01-27T11:51:08;103375.25;;;6.82;85.72
64298;BME280;50639;53.270;7.956;2024-01-27T11:53:35;103365.75;;;6.87;85.05
64298;BME280;50639;53.270;7.956;2024-01-27T11:56:00;103361.47;;;6.94;84.97
64298;BME280;50639;53.270;7.956;2024-01-27T11:58:27;103358.03;;;6.95;85.03
64298;BME280;50639;53.270;7.956;2024-01-27T12:00:53;103363.19;;;6.92;85.21
64298;BME280;50639;53.270;7.956;2024-01-27T12:03:19;103354.56;;;6.96;84.78
64298;BME280;50639;53.270;7.956;2024-01-27T12:05:44;103359.69;;;7.02;84.17
64298;BME280;50639;53.270;7.956;2024-01-27T12:08:10;103359.66;;;7.08;84.05
64298;BME280;50639;53.270;7.956;2024-01-27T12:10:36;103360.50;;;7.11;84.30
64298;BME280;50639;53.270;7.956;2024-01-27T12:13:01;103369.94;;;7.12;84.03
64298;BME280;50639;53.270;7.956;2024-01-27T12:15:27;103376.81;;;7.15;84.01
64298;BME280;50639;53.270;7.956;2024-01-27T12:17:53;103375.91;;;7.22;83.88
64298;BME280;50639;53.270;7.956;2024-01-27T12:20:18;103375.03;;;7.28;83.75
64298;BME280;50639;53.270;7.956;2024-01-27T12:22:44;103372.41;;;7.31;83.69
64298;BME280;50639;53.270;7.956;2024-01-27T12:25:11;103370.69;;;7.36;82.73
64298;BME280;50639;53.270;7.956;2024-01-27T12:27:41;103363.81;;;7.32;82.57
64298;BME280;50639;53.270;7.956;2024-01-27T12:30:08;103363.81;;;7.38;82.74
64298;BME280;50639;53.270;7.956;2024-01-27T12:32:33;103361.19;;;7.44;82.86
64298;BME280;50639;53.270;7.956;2024-01-27T12:35:07;103365.44;;;7.49;82.77
64298;BME280;50639;53.270;7.956;2024-01-27T12:37:34;103356.78;;;7.56;82.42
64298;BME280;50639;53.270;7.956;2024-01-27T12:39:59;103357.69;;;7.52;81.75
64298;BME280;50639;53.270;7.956;2024-01-27T12:42:25;103367.16;;;7.49;82.24
64298;BME280;50639;53.270;7.956;2024-01-27T12:44:50;103369.75;;;7.46;82.14
64298;BME280;50639;53.270;7.956;2024-01-27T12:47:16;103363.81;;;7.38;81.93
64298;BME280;50639;53.270;7.956;2024-01-27T12:49:41;103371.47;;;7.45;81.33
64298;BME280;50639;53.270;7.956;2024-01-27T12:52:07;103367.19;;;7.44;82.07
64298;BME280;50639;53.270;7.956;2024-01-27T12:54:33;103364.56;;;7.49;82.06